Time;durP1;ratioP1;P1;durP2;ratioP2;P2;SDS_P1;SDS_P2;PMS_P1;PMS_P2;Temp;Humidity;BMP_temperature;BMP_pressure;BME280_temperature;BME280_humidity;BME280_pressure;Samples;Min_cycle;Max_cycle;Signal;HPM_P1;HPM_P2
2024/02/29 00:01:32;;;;;;;;;;;;;;;;;;4215949;28;19966;-57
2024/02/29 00:03:33;;;;;;;;;;;;;;;;;;4215780;28;20005;-57
2024/02/29 00:05:36;;;;;;;;;;;;;;;;;;4216244;28;19926;-57
2024/02/29 00:07:37;;;;;;;;;;;;;;;;;;4215842;28;19959;-57
2024/02/29 00:09:39;;;;;;;;;;;;;;;;;;4216029;28;19920;-57
2024/02/29 00:11:41;;;;;;;;;;;;;;;;;;4197982;28;19924;-57
2024/02/29 00:13:43;;;;;;;;;;;;;;;;;;4215911;28;19976;-57
2024/02/29 00:15:44;;;;;;;;;;;;;;;;;;4215869;28;19943;-57
2024/02/29 00:17:46;;;;;;;;;;;;;;;;;;4215945;28;19977;-57
2024/02/29 00:19:48;;;;;;;;;;;;;;;;;;4204634;28;19920;-57
2024/02/29 00:21:50;;;;;;;;;;;;;;;;;;4182341;28;19928;-56
2024/02/29 00:23:51;;;;;;;;;;;;;;;;;;4182390;28;19946;-57
2024/02/29 00:25:53;;;;;;;;;;;;;;;;;;4182522;28;19974;-57
2024/02/29 00:27:54;;;;;;;;;;;;;;;;;;4182312;28;20019;-57
2024/02/29 00:29:56;;;;;;;;;;;;;;;;;;4182335;28;19943;-57
2024/02/29 00:32:00;;;;;;;;;;;;;;;;;;4182734;28;19921;-56
2024/02/29 00:34:02;;;;;;;;;;;;;;;;;;4182141;28;19932;-57
2024/02/29 00:36:03;;;;;;;;;;;;;;;;;;4182363;28;19933;-57
2024/02/29 00:38:10;;;;;;;;;;;;;;;;;;4182183;28;19920;-56
2024/02/29 00:40:12;;;;;;;;;;;;;;;;;;4182226;28;19920;-57
2024/02/29 00:42:13;;;;;;;;;;;;;;;;;;4181978;28;19920;-57
2024/02/29 00:44:15;;;;;;;;;;;;;;;;;;4181920;28;19950;-57
2024/02/29 00:46:16;;;;;;;;;;;;;;;;;;4182404;28;19971;-57
2024/02/29 00:48:18;;;;;;;;;;;;;;;;;;4182017;28;19988;-57
2024/02/29 00:50:19;;;;;;;;;;;;;;;;;;4181941;28;20372;-57
2024/02/29 00:52:21;;;;;;;;;;;;;;;;;;4164138;28;19925;-57
2024/02/29 00:54:24;;;;;;;;;;;;;;;;;;4182081;28;19975;-57
2024/02/29 00:56:26;;;;;;;;;;;;;;;;;;4200325;28;19920;-58
2024/02/29 00:58:27;;;;;;;;;;;;;;;;;;4215163;28;19920;-56
2024/02/29 01:00:29;;;;;;;;;;;;;;;;;;4215137;28;20325;-57
2024/02/29 01:02:30;;;;;;;;;;;;;;;;;;4215221;28;19931;-57
2024/02/29 01:04:32;;;;;;;;;;;;;;;;;;4214742;28;19927;-57
2024/02/29 01:06:33;;;;;;;;;;;;;;;;;;4215052;28;20322;-57
2024/02/29 01:08:35;;;;;;;;;;;;;;;;;;4214937;28;20417;-57
2024/02/29 01:10:36;;;;;;;;;;;;;;;;;;4215159;28;19920;-57
2024/02/29 01:12:47;;;;;;;;;;;;;;;;;;4214849;28;19920;-57
2024/02/29 01:14:48;;;;;;;;;;;;;;;;;;4214946;28;19927;-56
2024/02/29 01:16:53;;;;;;;;;;;;;;;;;;4190048;28;20347;-57
2024/02/29 01:18:55;;;;;;;;;;;;;;;;;;4181645;28;19924;-57
2024/02/29 01:20:56;;;;;;;;;;;;;;;;;;4181537;28;19927;-57
2024/02/29 01:22:58;;;;;;;;;;;;;;;;;;4181518;28;19970;-57
2024/02/29 01:24:59;;;;;;;;;;;;;;;;;;4181397;28;19959;-57
2024/02/29 01:27:01;;;;;;;;;;;;;;;;;;4181449;28;19924;-57
2024/02/29 01:29:03;;;;;;;;;;;;;;;;;;4181508;28;19928;-57
2024/02/29 01:31:05;;;;;;;;;;;;;;;;;;4181413;28;19920;-57
2024/02/29 01:33:07;;;;;;;;;;;;;;;;;;4181310;28;19971;-57
2024/02/29 01:35:09;;;;;;;;;;;;;;;;;;4146506;28;19921;-57
2024/02/29 01:37:11;;;;;;;;;;;;;;;;;;4181425;28;19925;-59
2024/02/29 01:39:12;;;;;;;;;;;;;;;;;;4181207;28;20363;-59
2024/02/29 01:41:14;;;;;;;;;;;;;;;;;;4181162;28;19925;-59
2024/02/29 01:43:16;;;;;;;;;;;;;;;;;;4181276;28;19932;-58
2024/02/29 01:45:18;;;;;;;;;;;;;;;;;;4181177;28;19932;-58
2024/02/29 01:47:19;;;;;;;;;;;;;;;;;;4181348;28;20377;-59
2024/02/29 01:49:20;;;;;;;;;;;;;;;;;;4181382;28;19929;-59
2024/02/29 01:51:22;;;;;;;;;;;;;;;;;;4181226;28;19982;-59
2024/02/29 01:53:24;;;;;;;;;;;;;;;;;;4211302;28;19971;-58
2024/02/29 01:55:25;;;;;;;;;;;;;;;;;;4214382;28;19920;-59
2024/02/29 01:57:26;;;;;;;;;;;;;;;;;;4214150;28;19924;-57
2024/02/29 01:59:29;;;;;;;;;;;;;;;;;;4178374;28;20347;-57
2024/02/29 02:01:31;;;;;;;;;;;;;;;;;;4214317;28;19924;-58
2024/02/29 02:03:32;;;;;;;;;;;;;;;;;;4163661;28;19925;-59
2024/02/29 02:05:34;;;;;;;;;;;;;;;;;;4180799;28;19921;-59
2024/02/29 02:07:35;;;;;;;;;;;;;;;;;;4180352;28;19927;-58
2024/02/29 02:09:41;;;;;;;;;;;;;;;;;;4180983;28;19921;-58
2024/02/29 02:11:42;;;;;;;;;;;;;;;;;;4180794;28;20019;-57
2024/02/29 02:13:44;;;;;;;;;;;;;;;;;;4181159;28;19921;-57
2024/02/29 02:15:45;;;;;;;;;;;;;;;;;;4181404;28;19921;-57
2024/02/29 02:17:49;;;;;;;;;;;;;;;;;;4181148;28;19928;-58
2024/02/29 02:19:51;;;;;;;;;;;;;;;;;;4181110;28;20296;-58
2024/02/29 02:21:52;;;;;;;;;;;;;;;;;;4180981;28;19931;-59
2024/02/29 02:23:54;;;;;;;;;;;;;;;;;;4180778;28;19971;-56
2024/02/29 02:25:58;;;;;;;;;;;;;;;;;;4180792;28;19921;-58
2024/02/29 02:27:59;;;;;;;;;;;;;;;;;;4180780;28;19982;-57
2024/02/29 02:30:06;;;;;;;;;;;;;;;;;;4162980;28;20471;-59
2024/02/29 02:32:08;;;;;;;;;;;;;;;;;;4180935;28;19924;-59
2024/02/29 02:34:09;;;;;;;;;;;;;;;;;;4180853;28;19927;-59
2024/02/29 02:36:11;;;;;;;;;;;;;;;;;;4180805;28;20057;-59
2024/02/29 02:38:12;;;;;;;;;;;;;;;;;;4163122;28;20376;-59
2024/02/29 02:40:14;;;;;;;;;;;;;;;;;;4180919;28;19960;-58
2024/02/29 02:42:15;;;;;;;;;;;;;;;;;;4180729;28;19929;-59
2024/02/29 02:44:17;;;;;;;;;;;;;;;;;;4180434;28;19943;-58
2024/02/29 02:46:19;;;;;;;;;;;;;;;;;;4180670;28;19944;-58
2024/02/29 02:48:20;;;;;;;;;;;;;;;;;;4189534;28;19920;-59
2024/02/29 02:50:22;;;;;;;;;;;;;;;;;;4213996;28;19924;-58
2024/02/29 02:52:23;;;;;;;;;;;;;;;;;;4213682;28;20472;-58
2024/02/29 02:54:24;;;;;;;;;;;;;;;;;;4214003;28;19919;-59
2024/02/29 02:56:26;;;;;;;;;;;;;;;;;;4213832;28;19920;-58
2024/02/29 02:58:27;;;;;;;;;;;;;;;;;;4213906;28;19920;-59
2024/02/29 03:00:29;;;;;;;;;;;;;;;;;;4206869;28;19921;-58
2024/02/29 03:02:30;;;;;;;;;;;;;;;;;;4196986;28;19925;-58
2024/02/29 03:04:32;;;;;;;;;;;;;;;;;;4197031;28;19924;-59
2024/02/29 03:06:33;;;;;;;;;;;;;;;;;;4179284;28;20340;-56
2024/02/29 03:08:35;;;;;;;;;;;;;;;;;;4191210;28;20403;-58
2024/02/29 03:10:36;;;;;;;;;;;;;;;;;;4180571;28;19960;-59
2024/02/29 03:12:38;;;;;;;;;;;;;;;;;;4180709;28;19979;-58
2024/02/29 03:14:39;;;;;;;;;;;;;;;;;;4180467;28;20015;-58
2024/02/29 03:16:41;;;;;;;;;;;;;;;;;;4180697;28;20372;-57
2024/02/29 03:18:43;;;;;;;;;;;;;;;;;;4180743;28;19950;-58
2024/02/29 03:20:44;;;;;;;;;;;;;;;;;;4183406;28;19947;-58
2024/02/29 03:22:46;;;;;;;;;;;;;;;;;;4183168;28;19976;-57
2024/02/29 03:24:47;;;;;;;;;;;;;;;;;;4183350;28;19928;-58
2024/02/29 03:26:49;;;;;;;;;;;;;;;;;;4183367;28;19948;-58
2024/02/29 03:28:50;;;;;;;;;;;;;;;;;;4183229;28;19974;-58
2024/02/29 03:30:53;;;;;;;;;;;;;;;;;;4183164;28;19925;-58
2024/02/29 03:32:54;;;;;;;;;;;;;;;;;;4183118;28;19928;-57
2024/02/29 03:34:56;;;;;;;;;;;;;;;;;;4183414;28;19921;-58
2024/02/29 03:36:57;;;;;;;;;;;;;;;;;;4189457;28;19928;-59
2024/02/29 03:38:59;;;;;;;;;;;;;;;;;;4199096;28;19924;-58
2024/02/29 03:41:00;;;;;;;;;;;;;;;;;;4198822;28;19920;-58
2024/02/29 03:43:02;;;;;;;;;;;;;;;;;;4180624;28;19924;-58
2024/02/29 03:45:03;;;;;;;;;;;;;;;;;;4206691;28;19927;-57
2024/02/29 03:47:05;;;;;;;;;;;;;;;;;;4215523;28;19920;-58
2024/02/29 03:49:06;;;;;;;;;;;;;;;;;;4215524;28;19927;-58
2024/02/29 03:51:08;;;;;;;;;;;;;;;;;;4215539;28;20436;-57
2024/02/29 03:53:10;;;;;;;;;;;;;;;;;;4215763;28;19920;-59
2024/02/29 03:55:12;;;;;;;;;;;;;;;;;;4216188;28;19934;-59
2024/02/29 03:57:13;;;;;;;;;;;;;;;;;;4215531;28;19928;-59
2024/02/29 03:59:15;;;;;;;;;;;;;;;;;;4215930;28;20299;-58
2024/02/29 04:01:16;;;;;;;;;;;;;;;;;;4215878;28;20014;-58
2024/02/29 04:03:19;;;;;;;;;;;;;;;;;;4215822;28;19924;-58
2024/02/29 04:05:24;;;;;;;;;;;;;;;;;;4195994;28;19921;-58
2024/02/29 04:07:25;;;;;;;;;;;;;;;;;;4182748;28;19963;-59
2024/02/29 04:09:27;;;;;;;;;;;;;;;;;;4182879;28;19927;-58
2024/02/29 04:11:28;;;;;;;;;;;;;;;;;;4164942;28;20344;-59
2024/02/29 04:13:30;;;;;;;;;;;;;;;;;;4182545;28;19929;-58
2024/02/29 04:15:31;;;;;;;;;;;;;;;;;;4182559;28;19929;-58
2024/02/29 04:17:33;;;;;;;;;;;;;;;;;;4182409;28;20018;-59
2024/02/29 04:19:35;;;;;;;;;;;;;;;;;;4182421;28;19921;-58
2024/02/29 04:21:36;;;;;;;;;;;;;;;;;;4182648;28;19921;-59
2024/02/29 04:23:38;;;;;;;;;;;;;;;;;;4182260;28;19956;-59
2024/02/29 04:25:39;;;;;;;;;;;;;;;;;;4182464;28;20308;-58
2024/02/29 04:27:41;;;;;;;;;;;;;;;;;;4182616;28;20007;-57
2024/02/29 04:29:42;;;;;;;;;;;;;;;;;;4182066;28;19963;-57
2024/02/29 04:31:44;;;;;;;;;;;;;;;;;;4182381;28;19928;-57
2024/02/29 04:33:46;;;;;;;;;;;;;;;;;;4182113;28;19921;-57
2024/02/29 04:35:51;;;;;;;;;;;;;;;;;;4182259;28;19920;-57
2024/02/29 04:37:52;;;;;;;;;;;;;;;;;;4182303;28;20426;-57
2024/02/29 04:39:54;;;;;;;;;;;;;;;;;;4182497;28;20363;-57
2024/02/29 04:41:55;;;;;;;;;;;;;;;;;;4208875;28;19920;-58
2024/02/29 04:43:57;;;;;;;;;;;;;;;;;;4215408;28;20171;-57
2024/02/29 04:45:59;;;;;;;;;;;;;;;;;;4215338;28;19920;-57
2024/02/29 04:48:01;;;;;;;;;;;;;;;;;;4215361;28;19969;-57
2024/02/29 04:50:04;;;;;;;;;;;;;;;;;;4215374;28;19923;-57
2024/02/29 04:52:06;;;;;;;;;;;;;;;;;;4215277;28;19977;-57
2024/02/29 04:54:07;;;;;;;;;;;;;;;;;;4215463;28;20014;-57
2024/02/29 04:56:09;;;;;;;;;;;;;;;;;;4215354;28;19924;-57
2024/02/29 04:58:10;;;;;;;;;;;;;;;;;;4215183;28;19930;-57
2024/02/29 05:00:13;;;;;;;;;;;;;;;;;;4215449;28;19935;-57
2024/02/29 05:02:15;;;;;;;;;;;;;;;;;;4184217;28;20397;-57
2024/02/29 05:04:17;;;;;;;;;;;;;;;;;;4181769;28;19920;-57
2024/02/29 05:06:19;;;;;;;;;;;;;;;;;;4185021;28;20279;-57
2024/02/29 05:08:20;;;;;;;;;;;;;;;;;;4180446;28;19928;-56
2024/02/29 05:10:22;;;;;;;;;;;;;;;;;;4180374;28;19931;-57
2024/02/29 05:12:26;;;;;;;;;;;;;;;;;;4191912;28;19920;-57
2024/02/29 05:14:28;;;;;;;;;;;;;;;;;;4190537;28;19932;-57
2024/02/29 05:16:29;;;;;;;;;;;;;;;;;;4181462;28;20459;-57
2024/02/29 05:18:31;;;;;;;;;;;;;;;;;;4181642;28;19943;-57
2024/02/29 05:20:32;;;;;;;;;;;;;;;;;;4185824;28;19924;-57
2024/02/29 05:22:34;;;;;;;;;;;;;;;;;;4194452;28;19924;-57
2024/02/29 05:24:39;;;;;;;;;;;;;;;;;;4181484;28;20428;-57
2024/02/29 05:26:40;;;;;;;;;;;;;;;;;;4181455;28;19927;-57
2024/02/29 05:28:42;;;;;;;;;;;;;;;;;;4181499;28;20323;-58
2024/02/29 05:30:43;;;;;;;;;;;;;;;;;;4188333;28;19920;-56
2024/02/29 05:32:45;;;;;;;;;;;;;;;;;;4187141;28;19964;-56
2024/02/29 05:34:46;;;;;;;;;;;;;;;;;;4181274;28;20368;-57
2024/02/29 05:36:48;;;;;;;;;;;;;;;;;;4166071;28;19921;-57
2024/02/29 05:38:50;;;;;;;;;;;;;;;;;;4198019;28;20418;-59
2024/02/29 05:40:52;;;;;;;;;;;;;;;;;;4197756;28;19920;-59
2024/02/29 05:42:53;;;;;;;;;;;;;;;;;;4196718;28;20395;-58
2024/02/29 05:44:54;;;;;;;;;;;;;;;;;;4197485;28;19921;-58
2024/02/29 05:46:57;;;;;;;;;;;;;;;;;;4182168;28;19925;-58
2024/02/29 05:48:58;;;;;;;;;;;;;;;;;;4181081;28;19947;-59
2024/02/29 05:51:00;;;;;;;;;;;;;;;;;;4181357;28;20265;-59
2024/02/29 05:53:02;;;;;;;;;;;;;;;;;;4180997;28;19920;-59
2024/02/29 05:55:03;;;;;;;;;;;;;;;;;;4181056;28;19947;-59
2024/02/29 05:57:06;;;;;;;;;;;;;;;;;;4180867;28;19920;-59
2024/02/29 05:59:08;;;;;;;;;;;;;;;;;;4180812;28;19939;-59
2024/02/29 06:01:10;;;;;;;;;;;;;;;;;;4180759;28;20369;-59
2024/02/29 06:03:11;;;;;;;;;;;;;;;;;;4180522;28;19920;-59
2024/02/29 06:05:13;;;;;;;;;;;;;;;;;;4180713;28;19920;-59
2024/02/29 06:07:15;;;;;;;;;;;;;;;;;;4180560;28;20471;-59
2024/02/29 06:09:16;;;;;;;;;;;;;;;;;;4180471;28;19921;-60
2024/02/29 06:11:18;;;;;;;;;;;;;;;;;;4163513;28;19921;-59
2024/02/29 06:13:19;;;;;;;;;;;;;;;;;;4180455;28;19924;-59
2024/02/29 06:15:21;;;;;;;;;;;;;;;;;;4180245;28;20025;-59
2024/02/29 06:17:22;;;;;;;;;;;;;;;;;;4180775;28;19929;-58
2024/02/29 06:19:24;;;;;;;;;;;;;;;;;;4180398;28;20430;-59
2024/02/29 06:21:25;;;;;;;;;;;;;;;;;;4180374;28;20008;-64
2024/02/29 06:23:27;;;;;;;;;;;;;;;;;;4182704;28;20378;-64
2024/02/29 06:25:28;;;;;;;;;;;;;;;;;;4188836;28;19924;-64
2024/02/29 06:27:30;;;;;;;;;;;;;;;;;;4192048;28;19950;-63
2024/02/29 06:29:31;;;;;;;;;;;;;;;;;;4197209;28;19970;-63
2024/02/29 06:31:33;;;;;;;;;;;;;;;;;;4197267;28;19929;-63
2024/02/29 06:33:34;;;;;;;;;;;;;;;;;;4199958;28;19951;-63
2024/02/29 06:35:36;;;;;;;;;;;;;;;;;;4198522;28;20471;-64
2024/02/29 06:37:37;;;;;;;;;;;;;;;;;;4196565;28;19943;-64
2024/02/29 06:39:39;;;;;;;;;;;;;;;;;;4197159;28;19920;-64
2024/02/29 06:41:40;;;;;;;;;;;;;;;;;;4197828;28;20368;-65
2024/02/29 06:43:42;;;;;;;;;;;;;;;;;;4197188;28;19982;-64
2024/02/29 06:45:43;;;;;;;;;;;;;;;;;;4196539;28;20426;-63
2024/02/29 06:47:45;;;;;;;;;;;;;;;;;;4196764;28;19981;-64
2024/02/29 06:49:47;;;;;;;;;;;;;;;;;;4197302;28;20376;-63
2024/02/29 06:51:48;;;;;;;;;;;;;;;;;;4197454;28;19920;-64
2024/02/29 06:53:50;;;;;;;;;;;;;;;;;;4191283;28;20308;-64
2024/02/29 06:55:51;;;;;;;;;;;;;;;;;;4183838;28;19924;-64
2024/02/29 06:57:53;;;;;;;;;;;;;;;;;;4184036;28;19978;-64
2024/02/29 06:59:54;;;;;;;;;;;;;;;;;;4184033;28;19924;-65
2024/02/29 07:01:56;;;;;;;;;;;;;;;;;;4183842;28;19966;-65
2024/02/29 07:03:57;;;;;;;;;;;;;;;;;;4183477;28;20285;-64
2024/02/29 07:05:59;;;;;;;;;;;;;;;;;;4183538;28;19950;-64
2024/02/29 07:08:01;;;;;;;;;;;;;;;;;;4183593;28;19921;-64
2024/02/29 07:10:03;;;;;;;;;;;;;;;;;;4183538;28;19928;-65
2024/02/29 07:12:04;;;;;;;;;;;;;;;;;;4183444;28;19920;-64
2024/02/29 07:14:06;;;;;;;;;;;;;;;;;;4183452;28;19921;-64
2024/02/29 07:16:09;;;;;;;;;;;;;;;;;;4165665;28;19925;-64
2024/02/29 07:18:11;;;;;;;;;;;;;;;;;;4183310;28;19921;-64
2024/02/29 07:20:15;;;;;;;;;;;;;;;;;;4183655;28;19928;-64
2024/02/29 07:22:17;;;;;;;;;;;;;;;;;;4183310;28;19976;-64
2024/02/29 07:24:19;;;;;;;;;;;;;;;;;;4190514;28;19921;-64
2024/02/29 07:26:20;;;;;;;;;;;;;;;;;;4199948;28;19926;-65
2024/02/29 07:28:22;;;;;;;;;;;;;;;;;;4199859;28;20356;-64
2024/02/29 07:30:23;;;;;;;;;;;;;;;;;;4210807;28;19981;-65
2024/02/29 07:32:25;;;;;;;;;;;;;;;;;;4198643;28;19921;-64
2024/02/29 07:34:26;;;;;;;;;;;;;;;;;;4198498;28;19924;-64
2024/02/29 07:36:28;;;;;;;;;;;;;;;;;;4216430;28;19920;-65
2024/02/29 07:38:29;;;;;;;;;;;;;;;;;;4216465;28;19919;-65
2024/02/29 07:40:31;;;;;;;;;;;;;;;;;;4216398;28;19920;-64
2024/02/29 07:42:32;;;;;;;;;;;;;;;;;;4216395;28;19973;-65
2024/02/29 07:44:35;;;;;;;;;;;;;;;;;;4216020;28;19924;-64
2024/02/29 07:46:36;;;;;;;;;;;;;;;;;;4216272;28;19919;-64
2024/02/29 07:48:38;;;;;;;;;;;;;;;;;;4216075;28;19942;-65
2024/02/29 07:50:39;;;;;;;;;;;;;;;;;;4190984;28;19921;-65
2024/02/29 07:52:41;;;;;;;;;;;;;;;;;;4165195;28;20399;-65
2024/02/29 07:54:45;;;;;;;;;;;;;;;;;;4165316;28;19925;-64
2024/02/29 07:56:47;;;;;;;;;;;;;;;;;;4183164;28;19925;-64
2024/02/29 07:58:48;;;;;;;;;;;;;;;;;;4183021;28;19920;-65
2024/02/29 08:00:50;;;;;;;;;;;;;;;;;;4182856;28;19974;-64
2024/02/29 08:02:51;;;;;;;;;;;;;;;;;;4183028;28;19936;-64
2024/02/29 08:04:53;;;;;;;;;;;;;;;;;;4181550;28;19925;-65
2024/02/29 08:06:54;;;;;;;;;;;;;;;;;;4182705;28;19924;-65
2024/02/29 08:08:56;;;;;;;;;;;;;;;;;;4182634;28;19921;-64
2024/02/29 08:10:59;;;;;;;;;;;;;;;;;;4182713;28;19960;-64
2024/02/29 08:13:00;;;;;;;;;;;;;;;;;;4182684;28;19920;-64
2024/02/29 08:15:03;;;;;;;;;;;;;;;;;;4182806;28;19925;-64
2024/02/29 08:17:05;;;;;;;;;;;;;;;;;;4182645;28;20030;-63
2024/02/29 08:19:07;;;;;;;;;;;;;;;;;;4182587;28;19946;-64
2024/02/29 08:21:08;;;;;;;;;;;;;;;;;;4182501;28;20399;-64
2024/02/29 08:23:12;;;;;;;;;;;;;;;;;;4183534;28;19928;-65
2024/02/29 08:25:13;;;;;;;;;;;;;;;;;;4185428;28;19920;-65
2024/02/29 08:27:15;;;;;;;;;;;;;;;;;;4201831;28;19921;-64
2024/02/29 08:29:16;;;;;;;;;;;;;;;;;;4197043;28;21049;-64
2024/02/29 08:31:18;;;;;;;;;;;;;;;;;;4186791;28;19967;-65
2024/02/29 08:33:19;;;;;;;;;;;;;;;;;;4163919;28;19963;-64
2024/02/29 08:35:21;;;;;;;;;;;;;;;;;;4182434;28;19925;-65
2024/02/29 08:37:22;;;;;;;;;;;;;;;;;;4182419;28;19928;-64
2024/02/29 08:39:24;;;;;;;;;;;;;;;;;;4182633;28;20388;-65
2024/02/29 08:41:25;;;;;;;;;;;;;;;;;;4182101;28;19970;-65
2024/02/29 08:43:27;;;;;;;;;;;;;;;;;;4182018;28;19921;-64
2024/02/29 08:45:28;;;;;;;;;;;;;;;;;;4182007;28;19921;-65
2024/02/29 08:47:30;;;;;;;;;;;;;;;;;;4182056;28;20011;-64
2024/02/29 08:49:32;;;;;;;;;;;;;;;;;;4182020;28;19921;-64
2024/02/29 08:51:33;;;;;;;;;;;;;;;;;;4182006;28;19921;-64
2024/02/29 08:53:35;;;;;;;;;;;;;;;;;;4181959;28;19920;-64
2024/02/29 08:55:36;;;;;;;;;;;;;;;;;;4181880;28;20461;-64
2024/02/29 08:57:38;;;;;;;;;;;;;;;;;;4182136;28;19931;-65
2024/02/29 08:59:40;;;;;;;;;;;;;;;;;;4181668;28;20015;-65
2024/02/29 09:01:41;;;;;;;;;;;;;;;;;;4182093;28;19951;-64
2024/02/29 09:03:43;;;;;;;;;;;;;;;;;;4181663;28;19920;-64
2024/02/29 09:05:44;;;;;;;;;;;;;;;;;;4181827;28;19924;-64
2024/02/29 09:07:46;;;;;;;;;;;;;;;;;;4181677;28;19967;-64
2024/02/29 09:09:47;;;;;;;;;;;;;;;;;;4181913;28;19970;-64
2024/02/29 09:11:49;;;;;;;;;;;;;;;;;;4181642;28;19924;-64
2024/02/29 09:13:50;;;;;;;;;;;;;;;;;;4181571;28;20274;-64
2024/02/29 09:15:52;;;;;;;;;;;;;;;;;;4181549;28;19921;-65
2024/02/29 09:17:53;;;;;;;;;;;;;;;;;;4181767;28;19921;-64
2024/02/29 09:19:55;;;;;;;;;;;;;;;;;;4163802;28;19929;-65
2024/02/29 09:21:57;;;;;;;;;;;;;;;;;;4187711;28;19920;-64
2024/02/29 09:23:58;;;;;;;;;;;;;;;;;;4214588;28;19928;-64
2024/02/29 09:26:00;;;;;;;;;;;;;;;;;;4214742;28;19924;-65
2024/02/29 09:28:01;;;;;;;;;;;;;;;;;;4196735;28;19921;-64
2024/02/29 09:30:03;;;;;;;;;;;;;;;;;;4214747;28;20338;-64
2024/02/29 09:32:04;;;;;;;;;;;;;;;;;;4214675;28;19955;-63
2024/02/29 09:34:07;;;;;;;;;;;;;;;;;;4214648;28;20049;-65
2024/02/29 09:36:08;;;;;;;;;;;;;;;;;;4214580;28;20014;-64
2024/02/29 09:38:10;;;;;;;;;;;;;;;;;;4214649;28;19923;-65
2024/02/29 09:40:11;;;;;;;;;;;;;;;;;;4214651;28;20294;-64
2024/02/29 09:42:13;;;;;;;;;;;;;;;;;;4204880;28;19967;-64
2024/02/29 09:44:15;;;;;;;;;;;;;;;;;;4180858;28;20372;-64
2024/02/29 09:46:17;;;;;;;;;;;;;;;;;;4181181;28;19944;-64
2024/02/29 09:48:18;;;;;;;;;;;;;;;;;;4181421;28;19959;-65
2024/02/29 09:50:20;;;;;;;;;;;;;;;;;;4181467;28;20361;-64
2024/02/29 09:52:21;;;;;;;;;;;;;;;;;;4181163;28;19928;-64
2024/02/29 09:54:23;;;;;;;;;;;;;;;;;;4181152;28;20438;-65
2024/02/29 09:56:24;;;;;;;;;;;;;;;;;;4181124;28;19928;-64
2024/02/29 09:58:26;;;;;;;;;;;;;;;;;;4181131;28;20395;-65
2024/02/29 10:00:27;;;;;;;;;;;;;;;;;;4181042;28;19925;-64
2024/02/29 10:02:29;;;;;;;;;;;;;;;;;;4181086;28;19974;-64
2024/02/29 10:04:30;;;;;;;;;;;;;;;;;;4162858;28;19925;-63
2024/02/29 10:06:32;;;;;;;;;;;;;;;;;;4180987;28;19951;-64
2024/02/29 10:08:35;;;;;;;;;;;;;;;;;;4180940;28;19928;-64
2024/02/29 10:10:37;;;;;;;;;;;;;;;;;;4181166;28;19920;-64
2024/02/29 10:12:38;;;;;;;;;;;;;;;;;;4163271;28;19921;-64
2024/02/29 10:14:40;;;;;;;;;;;;;;;;;;4180867;28;19920;-65
2024/02/29 10:16:41;;;;;;;;;;;;;;;;;;4180812;28;19921;-65
2024/02/29 10:18:43;;;;;;;;;;;;;;;;;;4195644;28;19924;-64
2024/02/29 10:20:44;;;;;;;;;;;;;;;;;;4214316;28;20037;-59
2024/02/29 10:22:46;;;;;;;;;;;;;;;;;;4214021;28;19924;-59
2024/02/29 10:24:50;;;;;;;;;;;;;;;;;;4214235;28;19930;-59
2024/02/29 10:26:52;;;;;;;;;;;;;;;;;;4214185;28;19926;-59
2024/02/29 10:28:53;;;;;;;;;;;;;;;;;;4216414;28;19924;-59
2024/02/29 10:30:58;;;;;;;;;;;;;;;;;;4217576;28;19932;-59
2024/02/29 10:32:59;;;;;;;;;;;;;;;;;;4217373;28;19927;-59
2024/02/29 10:35:01;;;;;;;;;;;;;;;;;;4217450;28;19924;-59
2024/02/29 10:37:02;;;;;;;;;;;;;;;;;;4217487;28;19930;-59
2024/02/29 10:39:04;;;;;;;;;;;;;;;;;;4179935;28;19921;-59
2024/02/29 10:41:05;;;;;;;;;;;;;;;;;;4184158;28;19974;-59
2024/02/29 10:43:07;;;;;;;;;;;;;;;;;;4184268;28;19921;-58
2024/02/29 10:45:08;;;;;;;;;;;;;;;;;;4183757;28;19978;-59
2024/02/29 10:47:10;;;;;;;;;;;;;;;;;;4183974;28;19951;-59
2024/02/29 10:49:11;;;;;;;;;;;;;;;;;;4183904;28;20300;-59
2024/02/29 10:51:15;;;;;;;;;;;;;;;;;;4183948;28;20016;-58
2024/02/29 10:53:17;;;;;;;;;;;;;;;;;;4183842;28;19974;-59
2024/02/29 10:55:19;;;;;;;;;;;;;;;;;;4183799;28;19924;-59
2024/02/29 10:57:20;;;;;;;;;;;;;;;;;;4183765;28;19944;-59
2024/02/29 10:59:22;;;;;;;;;;;;;;;;;;4193767;28;20341;-58
2024/02/29 11:01:23;;;;;;;;;;;;;;;;;;4180846;28;20343;-59
2024/02/29 11:03:25;;;;;;;;;;;;;;;;;;4188016;28;19928;-59
2024/02/29 11:05:27;;;;;;;;;;;;;;;;;;4198472;28;20370;-58
2024/02/29 11:07:28;;;;;;;;;;;;;;;;;;4197056;28;20360;-59
2024/02/29 11:09:32;;;;;;;;;;;;;;;;;;4195039;28;20437;-60
2024/02/29 11:11:33;;;;;;;;;;;;;;;;;;4187453;28;19925;-59
2024/02/29 11:13:35;;;;;;;;;;;;;;;;;;4190490;28;19924;-59
2024/02/29 11:15:36;;;;;;;;;;;;;;;;;;4207390;28;19935;-59
2024/02/29 11:17:40;;;;;;;;;;;;;;;;;;4200274;28;19924;-59
2024/02/29 11:19:42;;;;;;;;;;;;;;;;;;4199926;28;20012;-58
2024/02/29 11:21:51;;;;;;;;;;;;;;;;;;4198235;28;20342;-59
2024/02/29 11:23:53;;;;;;;;;;;;;;;;;;4193624;28;19969;-59
2024/02/29 11:25:55;;;;;;;;;;;;;;;;;;4195694;28;19963;-58
2024/02/29 11:27:57;;;;;;;;;;;;;;;;;;4188070;28;19970;-58
2024/02/29 11:29:58;;;;;;;;;;;;;;;;;;4198055;28;19931;-64
2024/02/29 11:32:00;;;;;;;;;;;;;;;;;;4193810;28;19920;-59
2024/02/29 11:34:02;;;;;;;;;;;;;;;;;;4192997;28;19973;-58
2024/02/29 11:36:04;;;;;;;;;;;;;;;;;;4193369;28;19970;-59
2024/02/29 11:38:05;;;;;;;;;;;;;;;;;;4188800;28;19924;-59
2024/02/29 11:40:07;;;;;;;;;;;;;;;;;;4198489;28;20307;-59
2024/02/29 11:42:09;;;;;;;;;;;;;;;;;;4194204;28;19966;-59
2024/02/29 11:44:10;;;;;;;;;;;;;;;;;;4192237;28;19920;-59
2024/02/29 11:46:12;;;;;;;;;;;;;;;;;;4186593;28;19921;-59
2024/02/29 11:48:15;;;;;;;;;;;;;;;;;;4185811;28;20374;-59
2024/02/29 11:50:17;;;;;;;;;;;;;;;;;;4187826;28;19927;-58
2024/02/29 11:52:18;;;;;;;;;;;;;;;;;;4192741;28;19924;-60
2024/02/29 11:54:20;;;;;;;;;;;;;;;;;;4182894;28;20000;-59
2024/02/29 11:56:25;;;;;;;;;;;;;;;;;;4187125;28;19924;-59
2024/02/29 11:58:26;;;;;;;;;;;;;;;;;;4186465;28;20377;-59
2024/02/29 12:00:28;;;;;;;;;;;;;;;;;;4191825;28;19971;-59
2024/02/29 12:02:29;;;;;;;;;;;;;;;;;;4169623;28;19921;-59
2024/02/29 12:04:31;;;;;;;;;;;;;;;;;;4181231;28;19920;-58
2024/02/29 12:06:32;;;;;;;;;;;;;;;;;;4192352;28;19924;-59
2024/02/29 12:08:34;;;;;;;;;;;;;;;;;;4189170;28;19920;-59
2024/02/29 12:10:36;;;;;;;;;;;;;;;;;;4187053;28;20020;-60
2024/02/29 12:12:37;;;;;;;;;;;;;;;;;;4189217;28;20334;-59
2024/02/29 12:14:42;;;;;;;;;;;;;;;;;;4193671;28;19920;-58
2024/02/29 12:16:43;;;;;;;;;;;;;;;;;;4188469;28;20004;-59
2024/02/29 12:18:45;;;;;;;;;;;;;;;;;;4188804;28;19974;-59
2024/02/29 12:20:47;;;;;;;;;;;;;;;;;;4182384;28;19986;-59
2024/02/29 12:22:49;;;;;;;;;;;;;;;;;;4182628;28;19925;-59
2024/02/29 12:24:50;;;;;;;;;;;;;;;;;;4182408;28;19967;-58
2024/02/29 12:26:52;;;;;;;;;;;;;;;;;;4182593;28;19921;-58
2024/02/29 12:28:53;;;;;;;;;;;;;;;;;;4164657;28;19960;-58
2024/02/29 12:30:55;;;;;;;;;;;;;;;;;;4182278;28;20042;-58
2024/02/29 12:32:56;;;;;;;;;;;;;;;;;;4164555;28;19971;-59
2024/02/29 12:34:58;;;;;;;;;;;;;;;;;;4182330;28;19920;-59
2024/02/29 12:37:00;;;;;;;;;;;;;;;;;;4182405;28;19921;-59
2024/02/29 12:39:02;;;;;;;;;;;;;;;;;;4164683;28;20005;-59
2024/02/29 12:41:05;;;;;;;;;;;;;;;;;;4182625;28;19951;-59
2024/02/29 12:43:06;;;;;;;;;;;;;;;;;;4182102;28;19924;-59
2024/02/29 12:45:11;;;;;;;;;;;;;;;;;;4184920;28;20398;-59
2024/02/29 12:47:15;;;;;;;;;;;;;;;;;;4191488;28;19931;-57
2024/02/29 12:49:17;;;;;;;;;;;;;;;;;;4175472;28;19924;-57
2024/02/29 12:51:18;;;;;;;;;;;;;;;;;;4196082;28;19966;-57
2024/02/29 12:53:20;;;;;;;;;;;;;;;;;;4192873;28;19927;-56
2024/02/29 12:55:22;;;;;;;;;;;;;;;;;;4193428;28;19924;-57
2024/02/29 12:57:24;;;;;;;;;;;;;;;;;;4198737;28;19926;-57
2024/02/29 12:59:26;;;;;;;;;;;;;;;;;;4198777;28;20368;-57
2024/02/29 13:01:28;;;;;;;;;;;;;;;;;;4198299;28;20342;-57
2024/02/29 13:03:30;;;;;;;;;;;;;;;;;;4198011;28;19974;-58
2024/02/29 13:05:31;;;;;;;;;;;;;;;;;;4180564;28;19971;-58
2024/02/29 13:07:34;;;;;;;;;;;;;;;;;;4206401;28;20343;-58
2024/02/29 13:09:36;;;;;;;;;;;;;;;;;;4215171;28;19920;-58
2024/02/29 13:11:38;;;;;;;;;;;;;;;;;;4214916;28;19920;-57
2024/02/29 13:13:39;;;;;;;;;;;;;;;;;;4214678;28;19927;-58
2024/02/29 13:15:41;;;;;;;;;;;;;;;;;;4215063;28;19924;-58
2024/02/29 13:17:42;;;;;;;;;;;;;;;;;;4183041;28;19975;-58
2024/02/29 13:19:44;;;;;;;;;;;;;;;;;;4163854;28;19951;-58
2024/02/29 13:21:45;;;;;;;;;;;;;;;;;;4164018;28;19925;-58
2024/02/29 13:23:47;;;;;;;;;;;;;;;;;;4181552;28;19929;-59
2024/02/29 13:25:48;;;;;;;;;;;;;;;;;;4166522;28;19921;-58
2024/02/29 13:27:50;;;;;;;;;;;;;;;;;;4183272;28;19920;-58
2024/02/29 13:29:54;;;;;;;;;;;;;;;;;;4181381;28;20359;-58
2024/02/29 13:31:56;;;;;;;;;;;;;;;;;;4181503;28;19928;-58
2024/02/29 13:33:57;;;;;;;;;;;;;;;;;;4181739;28;19971;-57
2024/02/29 13:35:59;;;;;;;;;;;;;;;;;;4182153;28;19920;-58
2024/02/29 13:38:00;;;;;;;;;;;;;;;;;;4181510;28;20391;-58
2024/02/29 13:40:03;;;;;;;;;;;;;;;;;;4181210;28;19936;-58
2024/02/29 13:42:20;;;;;;;;;;;;;;;;;;4164438;28;19944;-57
2024/02/29 13:44:22;;;;;;;;;;;;;;;;;;4181036;28;19924;-58
2024/02/29 13:46:25;;;;;;;;;;;;;;;;;;4181716;28;20397;-58
2024/02/29 13:48:26;;;;;;;;;;;;;;;;;;4163497;28;19921;-58
2024/02/29 13:50:28;;;;;;;;;;;;;;;;;;4181195;28;19924;-59
2024/02/29 13:52:30;;;;;;;;;;;;;;;;;;4182921;28;20015;-58